Time;durP1;ratioP1;P1;durP2;ratioP2;P2;SDS_P1;SDS_P2;PMS_P1;PMS_P2;Temp;Humidity;BMP_temperature;BMP_pressure;BME280_temperature;BME280_humidity;BME280_pressure;Samples;Min_cycle;Max_cycle;Signal;HPM_P1;HPM_P2
2023/09/29 00:01:14;;;;;;;10.90;4.78;;;;;;;15.96;100.00;95270.91;4931254;29;20028;-84
2023/09/29 00:03:39;;;;;;;7.28;5.20;;;;;;;15.82;100.00;95265.63;4899709;29;20039;-84
2023/09/29 00:06:08;;;;;;;13.32;5.13;;;;;;;15.92;100.00;95270.50;4914170;29;20478;-84
2023/09/29 00:08:34;;;;;;;10.45;5.10;;;;;;;15.86;100.00;95270.47;4932230;29;20028;-84
2023/09/29 00:11:00;;;;;;;11.93;5.53;;;;;;;15.75;100.00;95272.63;4915094;29;20032;-84
2023/09/29 00:13:26;;;;;;;10.90;5.10;;;;;;;15.71;100.00;95267.97;4914664;29;20452;-84
2023/09/29 00:15:51;;;;;;;8.50;4.88;;;;;;;15.72;100.00;95274.84;4932530;29;20048;-84
2023/09/29 00:18:17;;;;;;;9.90;5.18;;;;;;;15.79;100.00;95275.66;4930801;29;20047;-84
2023/09/29 00:20:42;;;;;;;8.40;5.22;;;;;;;15.71;100.00;95283.66;4915532;29;20111;-84
2023/09/29 00:23:09;;;;;;;6.03;5.13;;;;;;;15.73;100.00;95281.69;4913439;29;20035;-84
2023/09/29 00:25:34;;;;;;;8.50;4.80;;;;;;;15.75;100.00;95277.06;4915390;29;20054;-84
2023/09/29 00:28:00;;;;;;;9.90;5.30;;;;;;;15.72;100.00;95280.06;4897945;29;20441;-84
2023/09/29 00:30:25;;;;;;;12.93;4.93;;;;;;;15.66;100.00;95286.88;4899030;29;20039;-82
2023/09/29 00:32:53;;;;;;;8.35;5.75;;;;;;;15.61;100.00;95281.41;4899045;29;20580;-84
2023/09/29 00:35:27;;;;;;;8.77;5.53;;;;;;;15.55;100.00;95278.75;4913811;29;20043;-84
2023/09/29 00:37:54;;;;;;;8.75;5.10;;;;;;;15.52;100.00;95279.13;4915873;29;20035;-83
2023/09/29 00:40:19;;;;;;;9.50;5.25;;;;;;;15.55;100.00;95276.94;4913757;29;20399;-84
2023/09/29 00:42:46;;;;;;;10.70;5.18;;;;;;;15.46;100.00;95278.06;4915155;29;20149;-83
2023/09/29 00:45:15;;;;;;;9.57;5.45;;;;;;;15.40;100.00;95278.84;4913888;29;20529;-84
2023/09/29 00:47:42;;;;;;;;;;;;;;;15.39;100.00;95277.22;4915221;29;20478;-84
2023/09/29 00:50:10;;;;;;;10.60;5.32;;;;;;;15.07;100.00;95283.84;4931616;29;19922;-84
2023/09/29 00:52:38;;;;;;;7.40;5.00;;;;;;;15.19;100.00;95290.16;4913295;29;20118;-85
2023/09/29 00:55:12;;;;;;;8.30;4.93;;;;;;;15.11;100.00;95295.53;4914579;29;20024;-84
2023/09/29 00:57:43;;;;;;;10.73;5.57;;;;;;;15.05;100.00;95296.28;4913668;29;20023;-84
2023/09/29 01:00:21;;;;;;;7.35;5.13;;;;;;;15.05;100.00;95300.69;4931731;29;20035;-84
2023/09/29 01:02:48;;;;;;;11.20;5.35;;;;;;;14.99;100.00;95297.06;4930956;29;20113;-84
2023/09/29 01:05:13;;;;;;;8.70;5.70;;;;;;;14.94;100.00;95295.97;4930689;29;20527;-85
2023/09/29 01:07:41;;;;;;;15.30;5.40;;;;;;;14.88;100.00;95305.38;4914549;29;20028;-84
2023/09/29 01:10:07;;;;;;;6.57;4.82;;;;;;;14.77;100.00;95301.47;4913116;29;20134;-84
2023/09/29 01:12:35;;;;;;;5.25;4.75;;;;;;;14.62;100.00;95305.94;4931259;29;20067;-85
2023/09/29 01:15:00;;;;;;;9.15;5.32;;;;;;;14.61;100.00;95306.94;4897065;29;20032;-84
2023/09/29 01:17:26;;;;;;;8.55;5.43;;;;;;;14.53;100.00;95308.88;4898666;29;20043;-85
2023/09/29 01:19:51;;;;;;;8.52;5.22;;;;;;;14.52;100.00;95308.06;4930656;29;20102;-84
2023/09/29 01:22:17;;;;;;;8.60;5.72;;;;;;;14.59;100.00;95306.31;4930623;29;20028;-85
2023/09/29 01:24:44;;;;;;;9.57;5.47;;;;;;;14.60;100.00;95300.13;4931073;29;20067;-84
2023/09/29 01:27:10;;;;;;;14.70;5.80;;;;;;;14.30;100.00;95300.38;4912612;29;20040;-84
2023/09/29 01:29:35;;;;;;;18.38;5.82;;;;;;;14.18;100.00;95300.06;4913819;29;20026;-85
2023/09/29 01:32:01;;;;;;;9.85;5.22;;;;;;;14.24;100.00;95299.31;4912568;29;20429;-85
2023/09/29 01:34:31;;;;;;;10.80;5.10;;;;;;;14.24;100.00;95294.91;4930865;29;20040;-85
2023/09/29 01:36:59;;;;;;;15.18;5.68;;;;;;;14.35;100.00;95282.44;4929430;29;20075;-84
2023/09/29 01:39:25;;;;;;;14.30;4.85;;;;;;;14.25;100.00;95283.47;4914132;29;20031;-83
2023/09/29 01:41:50;;;;;;;14.05;5.07;;;;;;;14.10;100.00;95277.53;4897738;29;20036;-85
2023/09/29 01:44:16;;;;;;;12.90;5.07;;;;;;;14.13;100.00;95282.38;4929953;29;20027;-84
2023/09/29 01:46:41;;;;;;;12.00;5.03;;;;;;;14.03;100.00;95292.25;4914483;29;20513;-84
2023/09/29 01:49:07;;;;;;;8.18;4.93;;;;;;;13.83;100.00;95286.03;4896034;29;20031;-84
2023/09/29 01:51:32;;;;;;;7.55;4.80;;;;;;;13.80;100.00;95294.22;4913943;29;20024;-84
2023/09/29 01:53:58;;;;;;;11.68;5.43;;;;;;;13.97;100.00;95290.41;4912108;29;20065;-84
2023/09/29 01:56:23;;;;;;;8.45;4.38;;;;;;;13.88;100.00;95295.88;4913575;29;20107;-85
2023/09/29 01:58:49;;;;;;;6.93;4.85;;;;;;;13.83;100.00;95288.66;4929722;29;20039;-85
2023/09/29 02:01:15;;;;;;;11.07;4.97;;;;;;;13.88;100.00;95291.50;4929876;29;20500;-87
2023/09/29 02:03:48;;;;;;;4.90;4.38;;;;;;;13.89;100.00;95295.72;4913405;29;20036;-85
2023/09/29 02:06:13;;;;;;;11.25;5.18;;;;;;;13.79;100.00;95299.59;4912258;29;20478;-83
2023/09/29 02:08:40;;;;;;;11.23;4.68;;;;;;;13.76;100.00;95303.38;4897863;29;20122;-84
2023/09/29 02:11:07;;;;;;;11.05;5.43;;;;;;;13.77;100.00;95306.78;4896430;29;20379;-85
2023/09/29 02:13:33;;;;;;;13.05;5.38;;;;;;;13.83;100.00;95308.66;4913707;29;20468;-85
2023/09/29 02:15:58;;;;;;;11.32;4.97;;;;;;;13.73;100.00;95314.97;4912312;29;20118;-85
2023/09/29 02:18:24;;;;;;;8.85;4.55;;;;;;;13.77;100.00;95325.81;4929832;29;20103;-85
2023/09/29 02:20:50;;;;;;;9.63;5.18;;;;;;;13.77;100.00;95322.41;4930366;29;20034;-85
2023/09/29 02:23:16;;;;;;;12.73;5.60;;;;;;;13.70;100.00;95317.94;4929574;29;20577;-85
2023/09/29 02:25:42;;;;;;;8.00;5.03;;;;;;;13.62;100.00;95317.19;4930606;29;20056;-83
2023/09/29 02:28:10;;;;;;;13.68;4.50;;;;;;;13.27;100.00;95326.50;4911687;29;20036;-84
2023/09/29 02:30:36;;;;;;;11.40;4.82;;;;;;;13.27;100.00;95330.91;4913926;29;20480;-84
2023/09/29 02:33:02;;;;;;;12.55;4.95;;;;;;;13.24;100.00;95337.28;4911739;29;20036;-86
2023/09/29 02:35:28;;;;;;;11.43;5.30;;;;;;;13.37;100.00;95337.47;4930712;29;20458;-85
2023/09/29 02:37:54;;;;;;;10.63;5.28;;;;;;;13.54;100.00;95330.31;4912636;29;20465;-83
2023/09/29 02:40:19;;;;;;;6.53;5.13;;;;;;;13.09;100.00;95329.47;4928503;29;20027;-83
2023/09/29 02:42:44;;;;;;;8.55;4.72;;;;;;;13.04;100.00;95333.53;4897438;29;20418;-83
2023/09/29 02:45:10;;;;;;;8.98;4.68;;;;;;;12.95;100.00;95343.19;4911962;29;20032;-86
2023/09/29 02:47:36;;;;;;;10.52;4.72;;;;;;;13.01;100.00;95342.50;4913382;29;20044;-86
2023/09/29 02:50:01;;;;;;;8.70;5.03;;;;;;;12.99;100.00;95333.25;4911810;29;20494;-85
2023/09/29 02:52:27;;;;;;;9.10;4.70;;;;;;;12.82;100.00;95342.97;4914008;29;20027;-87
2023/09/29 02:54:54;;;;;;;7.50;4.40;;;;;;;12.84;100.00;95335.81;4896584;29;20031;-85
2023/09/29 02:57:21;;;;;;;14.38;4.70;;;;;;;12.77;100.00;95341.88;4897899;29;20031;-86
2023/09/29 02:59:46;;;;;;;16.50;4.88;;;;;;;12.85;100.00;95331.41;4912991;29;20534;-84
2023/09/29 03:02:12;;;;;;;10.07;4.53;;;;;;;12.67;100.00;95339.53;4912282;29;20016;-86
2023/09/29 03:04:39;;;;;;;10.05;4.95;;;;;;;12.78;100.00;95335.72;4931129;29;20035;-85
2023/09/29 03:07:05;;;;;;;8.27;4.53;;;;;;;12.73;100.00;95328.44;4912733;29;20425;-86
2023/09/29 03:09:33;;;;;;;10.50;5.22;;;;;;;12.77;100.00;95329.72;4913879;29;20034;-87
2023/09/29 03:12:00;;;;;;;13.57;5.13;;;;;;;12.72;100.00;95323.38;4912771;29;20027;-82
2023/09/29 03:14:26;;;;;;;9.25;4.88;;;;;;;12.61;100.00;95333.25;4931661;29;20122;-85
2023/09/29 03:16:53;;;;;;;15.00;5.47;;;;;;;12.41;100.00;95336.44;4936346;29;20066;-83
2023/09/29 03:19:19;;;;;;;8.25;5.28;;;;;;;12.32;100.00;95346.09;4919232;29;20457;-83
2023/09/29 03:21:44;;;;;;;10.57;5.50;;;;;;;12.19;100.00;95355.41;4922518;29;20027;-83
2023/09/29 03:24:10;;;;;;;7.05;4.63;;;;;;;12.19;100.00;95360.59;4920525;29;20031;-83
2023/09/29 03:26:35;;;;;;;11.23;4.85;;;;;;;12.09;100.00;95348.66;4925274;29;20087;-83
2023/09/29 03:29:01;;;;;;;9.55;5.15;;;;;;;12.09;100.00;95351.25;4932956;29;20028;-83
2023/09/29 03:31:26;;;;;;;11.65;4.82;;;;;;;12.11;100.00;95351.88;4928788;29;20028;-81
2023/09/29 03:33:52;;;;;;;17.73;5.65;;;;;;;12.04;100.00;95352.75;4922228;29;20027;-83
2023/09/29 03:36:20;;;;;;;16.90;5.72;;;;;;;12.06;100.00;95349.00;4935557;29;20080;-82
2023/09/29 03:38:46;;;;;;;9.80;4.70;;;;;;;11.95;100.00;95346.75;4923029;29;20051;-81
2023/09/29 03:41:11;;;;;;;13.20;5.45;;;;;;;11.82;100.00;95341.28;4940437;29;20067;-81
2023/09/29 03:43:37;;;;;;;14.30;5.28;;;;;;;11.80;100.00;95355.41;5012816;23;20054;-80
2023/09/29 03:46:04;;;;;;;16.40;5.57;;;;;;;11.99;100.00;95345.44;4937205;29;20067;-82
2023/09/29 03:48:29;;;;;;;9.10;5.40;;;;;;;11.81;100.00;95344.88;4948055;29;20028;-80
2023/09/29 03:53:30;;;;;;;23.75;6.25;;;;;;;11.64;100.00;95361.44;5132213;23;20043;-81
2023/09/29 03:58:30;;;;;;;13.07;5.30;;;;;;;11.42;100.00;95362.16;5061871;23;20048;-80
2023/09/29 04:00:56;;;;;;;7.35;5.55;;;;;;;11.43;100.00;95366.38;5031831;23;20103;-78
2023/09/29 04:03:22;;;;;;;9.15;5.68;;;;;;;11.46;100.00;95366.03;5048917;23;20066;-80
2023/09/29 04:05:47;;;;;;;9.13;5.25;;;;;;;11.56;100.00;95364.06;4950374;29;20038;-82
2023/09/29 04:08:13;;;;;;;13.65;5.57;;;;;;;11.51;100.00;95358.56;4955184;29;20036;-80
2023/09/29 04:10:38;;;;;;;12.48;8.00;;;;;;;11.45;100.00;95372.19;4957401;29;20031;-80
2023/09/29 04:13:04;;;;;;;12.55;6.82;;;;;;;11.41;100.00;95360.53;5239484;23;20050;-81
2023/09/29 04:15:29;;;;;;;14.35;6.57;;;;;;;11.46;100.00;95374.59;4940055;29;20031;-81
2023/09/29 04:17:55;;;;;;;8.05;6.22;;;;;;;11.33;100.00;95363.97;4957213;29;20023;-81
2023/09/29 04:20:20;;;;;;;10.18;6.20;;;;;;;11.11;100.00;95370.63;4957891;29;20043;-81
2023/09/29 04:22:46;;;;;;;15.18;7.20;;;;;;;11.16;100.00;95384.88;4960981;29;20040;-82
2023/09/29 04:25:11;;;;;;;13.00;6.53;;;;;;;11.07;100.00;95389.28;4953252;29;20058;-81
2023/09/29 04:27:38;;;;;;;13.50;7.30;;;;;;;11.34;100.00;95390.69;4941658;29;20023;-82
2023/09/29 04:30:06;;;;;;;12.00;6.18;;;;;;;10.88;100.00;95390.41;4941260;29;20043;-81
2023/09/29 04:32:31;;;;;;;17.55;7.88;;;;;;;11.37;100.00;95400.72;4942362;29;20043;-82
2023/09/29 04:34:57;;;;;;;17.98;8.48;;;;;;;11.40;100.00;95387.44;4937081;29;20036;-81
2023/09/29 04:37:22;;;;;;;21.63;10.68;;;;;;;11.28;100.00;95386.16;4936448;29;20016;-81
2023/09/29 04:42:24;;;;;;;12.23;6.78;;;;;;;10.82;100.00;95321.06;5187040;23;20063;-80
2023/09/29 04:44:49;;;;;;;11.82;6.32;;;;;;;11.16;100.00;95352.00;4959000;29;20032;-81
2023/09/29 04:47:15;;;;;;;20.40;8.30;;;;;;;11.14;100.00;95343.59;4940400;29;20058;-80
2023/09/29 04:49:41;;;;;;;16.23;11.38;;;;;;;11.41;100.00;95366.53;4941092;29;20497;-81
2023/09/29 04:52:06;;;;;;;18.70;9.75;;;;;;;11.52;100.00;95363.59;4920059;29;20051;-83
2023/09/29 04:54:31;;;;;;;13.50;6.93;;;;;;;11.64;100.00;95367.44;4917455;29;20028;-85
2023/09/29 04:56:57;;;;;;;13.43;5.32;;;;;;;11.71;100.00;95372.00;4929922;29;20354;-82
2023/09/29 04:59:22;;;;;;;9.63;5.43;;;;;;;11.82;100.00;95353.47;4921094;29;20442;-84
2023/09/29 05:01:47;;;;;;;14.10;5.32;;;;;;;11.85;100.00;95364.31;4940738;29;20031;-82
2023/09/29 05:04:13;;;;;;;16.23;5.90;;;;;;;11.86;100.00;95358.16;4916515;29;20461;-85
2023/09/29 05:06:38;;;;;;;11.85;5.93;;;;;;;12.06;100.00;95363.75;4899799;29;20118;-86
2023/09/29 05:09:04;;;;;;;13.18;5.55;;;;;;;12.31;100.00;95352.25;4914805;29;20114;-85
2023/09/29 05:11:29;;;;;;;20.60;6.05;;;;;;;12.23;100.00;95351.50;4897754;29;20513;-86
2023/09/29 05:13:55;;;;;;;14.20;5.70;;;;;;;12.43;100.00;95357.84;4913939;29;20087;-86
2023/09/29 05:16:21;;;;;;;17.75;5.95;;;;;;;12.43;100.00;95348.28;4931352;29;20032;-85
2023/09/29 05:18:47;;;;;;;13.43;5.40;;;;;;;12.61;100.00;95346.22;4897434;29;20028;-86
2023/09/29 05:21:14;;;;;;;11.45;5.38;;;;;;;12.72;100.00;95344.19;4929948;29;20024;-86
2023/09/29 05:23:40;;;;;;;10.60;5.40;;;;;;;12.75;100.00;95343.88;4912485;29;20038;-84
2023/09/29 05:26:07;;;;;;;19.80;5.38;;;;;;;12.90;100.00;95344.72;4914182;29;20027;-85
2023/09/29 05:28:34;;;;;;;11.93;6.40;;;;;;;12.88;100.00;95337.06;4913028;29;20032;-87
2023/09/29 05:31:00;;;;;;;15.73;6.43;;;;;;;13.16;100.00;95335.53;4913842;29;20028;-85
2023/09/29 05:33:25;;;;;;;14.98;6.15;;;;;;;13.44;100.00;95330.56;4913135;29;20035;-85
2023/09/29 05:35:51;;;;;;;18.58;7.15;;;;;;;13.42;100.00;95323.94;4912599;29;20052;-85
2023/09/29 05:38:16;;;;;;;12.50;5.40;;;;;;;13.64;100.00;95318.66;4897630;29;20020;-84
2023/09/29 05:40:42;;;;;;;10.10;5.38;;;;;;;14.03;100.00;95314.94;4912552;29;20537;-83
2023/09/29 05:43:10;;;;;;;9.43;4.85;;;;;;;14.77;100.00;95301.47;4913797;29;20082;-84
2023/09/29 05:45:41;;;;;;;9.38;4.68;;;;;;;15.19;100.00;95294.56;4929479;29;20046;-83
2023/09/29 05:48:06;;;;;;;11.32;4.32;;;;;;;15.21;100.00;95293.41;4930546;29;20155;-83
2023/09/29 05:50:32;;;;;;;13.32;4.50;;;;;;;15.44;100.00;95287.91;4928426;29;20027;-84
2023/09/29 05:52:58;;;;;;;19.83;5.35;;;;;;;15.42;100.00;95296.91;4897523;29;20390;-83
2023/09/29 05:55:24;;;;;;;10.40;4.70;;;;;;;15.41;100.00;95295.31;4897295;29;20039;-84
2023/09/29 05:57:50;;;;;;;15.93;4.55;;;;;;;15.47;100.00;95300.59;4912403;29;20102;-82
2023/09/29 06:00:16;;;;;;;19.15;5.07;;;;;;;15.52;100.00;95300.03;4913492;29;20073;-83
2023/09/29 06:02:42;;;;;;;9.90;4.82;;;;;;;15.59;100.00;95287.81;4896405;29;20119;-82
2023/09/29 06:05:09;;;;;;;22.27;11.00;;;;;;;15.56;100.00;95301.25;4913506;29;20055;-83
2023/09/29 06:07:35;;;;;;;20.13;11.25;;;;;;;15.74;100.00;95291.91;4912069;29;20034;-83
2023/09/29 06:10:01;;;;;;;18.38;8.48;;;;;;;15.75;100.00;95298.75;4912856;29;20115;-83
2023/09/29 06:12:26;;;;;;;13.43;5.68;;;;;;;15.85;100.00;95295.78;4912973;29;20031;-81
2023/09/29 06:14:52;;;;;;;17.38;4.47;;;;;;;15.88;100.00;95297.19;4929123;29;20075;-82
2023/09/29 06:17:17;;;;;;;18.08;4.40;;;;;;;16.19;100.00;95297.50;4930533;29;20114;-83
2023/09/29 06:19:42;;;;;;;14.70;4.40;;;;;;;16.49;100.00;95287.53;4911862;29;20378;-82
2023/09/29 06:22:08;;;;;;;9.48;4.03;;;;;;;16.34;100.00;95291.13;4913175;29;20035;-81
2023/09/29 06:24:33;;;;;;;8.68;4.25;;;;;;;16.14;100.00;95305.94;4911483;29;20050;-83
2023/09/29 06:26:59;;;;;;;11.45;4.50;;;;;;;16.16;100.00;95306.56;4897649;29;20035;-82
2023/09/29 06:29:24;;;;;;;11.55;4.55;;;;;;;15.86;100.00;95312.28;4912019;29;20035;-83
2023/09/29 06:31:49;;;;;;;9.13;5.03;;;;;;;15.73;100.00;95310.41;4930039;29;20085;-83
2023/09/29 06:34:15;;;;;;;16.95;4.80;;;;;;;16.18;100.00;95306.38;4912913;29;20031;-83
2023/09/29 06:36:41;;;;;;;11.80;4.57;;;;;;;16.37;100.00;95302.19;4929183;29;20028;-82
2023/09/29 06:39:06;;;;;;;12.50;4.47;;;;;;;17.85;100.00;95288.47;4929964;29;20028;-82
2023/09/29 06:41:31;;;;;;;10.32;4.45;;;;;;;17.37;100.00;95298.44;4895604;29;20505;-82
2023/09/29 06:43:57;;;;;;;14.20;4.25;;;;;;;17.44;100.00;95293.19;4930454;29;20482;-81
2023/09/29 06:46:23;;;;;;;8.55;3.55;;;;;;;17.99;100.00;95288.44;4911646;29;20417;-81
2023/09/29 06:48:48;;;;;;;11.75;4.63;;;;;;;18.26;100.00;95293.38;4916128;29;20063;-82
2023/09/29 06:51:14;;;;;;;9.82;4.20;;;;;;;18.08;100.00;95288.00;4916206;29;20031;-81
2023/09/29 06:53:39;;;;;;;12.32;5.00;;;;;;;18.87;100.00;95274.44;4915852;29;20335;-81
2023/09/29 06:56:05;;;;;;;11.63;4.25;;;;;;;19.87;100.00;95271.47;4933485;29;20040;-80
2023/09/29 06:58:30;;;;;;;9.98;4.00;;;;;;;20.47;92.15;95267.09;4932519;29;20027;-84
2023/09/29 07:00:57;;;;;;;12.63;3.50;;;;;;;20.25;90.40;95281.75;4900865;29;20099;-81
2023/09/29 07:03:23;;;;;;;9.02;4.10;;;;;;;20.19;91.06;95284.47;4899455;29;20118;-81
2023/09/29 07:05:49;;;;;;;29.10;4.68;;;;;;;20.73;85.03;95273.00;4916672;29;20540;-81
2023/09/29 07:08:15;;;;;;;14.57;4.40;;;;;;;24.22;66.93;95275.09;4914825;29;20126;-80
2023/09/29 07:10:41;;;;;;;11.43;4.10;;;;;;;25.47;59.76;95272.03;4900323;29;20090;-80
2023/09/29 07:13:07;;;;;;;13.40;4.47;;;;;;;24.34;64.23;95270.47;4916261;29;20386;-80
2023/09/29 07:15:32;;;;;;;15.57;4.22;;;;;;;23.21;68.78;95274.47;4932555;29;20090;-81
2023/09/29 07:17:58;;;;;;;14.90;3.65;;;;;;;25.46;60.41;95273.09;4915776;29;20287;-81
2023/09/29 07:20:24;;;;;;;14.38;3.60;;;;;;;28.03;52.13;95270.97;4915044;29;20031;-86
2023/09/29 07:22:51;;;;;;;15.25;3.38;;;;;;;28.27;47.99;95268.50;4915917;29;20414;-81
2023/09/29 07:25:18;;;;;;;13.73;3.83;;;;;;;28.46;49.43;95269.47;4914993;29;20020;-84
2023/09/29 07:27:44;;;;;;;11.90;3.72;;;;;;;25.15;57.31;95272.06;4933035;29;20057;-80
2023/09/29 07:30:10;;;;;;;16.25;3.92;;;;;;;23.95;67.82;95272.38;4915514;29;20083;-80
2023/09/29 07:32:39;;;;;;;12.93;3.30;;;;;;;27.36;53.00;95262.56;4915354;29;20023;-81
2023/09/29 07:35:07;;;;;;;10.20;2.97;;;;;;;26.59;53.14;95277.63;4915508;29;20114;-82
2023/09/29 07:37:32;;;;;;;;;;;;;;;25.16;58.23;95277.13;4915357;29;20070;-81
2023/09/29 07:39:58;;;;;;;12.10;3.35;;;;;;;23.20;66.12;95272.88;4915876;29;20403;-82
2023/09/29 07:42:23;;;;;;;11.23;4.13;;;;;;;23.07;65.91;95273.97;4931430;29;20051;-80
2023/09/29 07:44:48;;;;;;;12.32;3.70;;;;;;;22.15;69.58;95280.50;4915494;29;20406;-81
2023/09/29 07:47:14;;;;;;;7.32;3.35;;;;;;;22.10;72.82;95283.00;4898940;29;20119;-81
2023/09/29 07:49:40;;;;;;;11.50;3.95;;;;;;;22.04;74.21;95281.31;4899601;29;20034;-80
2023/09/29 07:52:07;;;;;;;8.75;3.70;;;;;;;21.98;73.90;95271.69;4915357;29;20047;-82
2023/09/29 07:54:34;;;;;;;11.32;3.80;;;;;;;21.94;75.39;95281.09;4931280;29;20040;-81
2023/09/29 07:57:00;;;;;;;15.45;3.67;;;;;;;21.90;73.79;95279.97;4915865;29;20054;-81
2023/09/29 07:59:25;;;;;;;10.18;4.07;;;;;;;21.85;74.13;95282.47;4930454;29;20063;-83
2023/09/29 08:01:52;;;;;;;12.38;3.80;;;;;;;21.73;75.39;95276.41;4899549;29;20032;-84
2023/09/29 08:04:17;;;;;;;9.02;3.33;;;;;;;22.01;70.28;95277.31;4914279;29;20584;-81
2023/09/29 08:06:43;;;;;;;12.65;3.55;;;;;;;21.98;71.92;95275.13;4932442;29;20031;-81
2023/09/29 08:09:08;;;;;;;10.20;3.22;;;;;;;22.49;69.46;95274.28;4931643;29;20481;-81
2023/09/29 08:11:34;;;;;;;11.75;3.63;;;;;;;23.27;65.35;95275.34;4914972;29;20032;-80
2023/09/29 08:13:59;;;;;;;19.38;4.15;;;;;;;23.68;60.76;95277.56;4931740;29;20019;-80
2023/09/29 08:16:25;;;;;;;12.43;3.78;;;;;;;23.17;62.43;95278.63;4898643;29;20039;-81
2023/09/29 08:18:50;;;;;;;15.63;3.28;;;;;;;23.03;63.36;95272.03;4932327;29;20481;-81
2023/09/29 08:21:16;;;;;;;16.55;3.33;;;;;;;22.83;64.89;95271.75;4913973;29;20425;-80
2023/09/29 08:23:41;;;;;;;11.52;3.67;;;;;;;23.14;65.34;95263.25;4931957;29;20028;-81
2023/09/29 08:26:06;;;;;;;19.58;3.72;;;;;;;23.11;65.35;95261.09;4913700;29;20115;-80
2023/09/29 08:28:32;;;;;;;14.65;3.50;;;;;;;22.94;65.40;95263.72;4899077;29;20035;-81
2023/09/29 08:30:57;;;;;;;20.08;3.35;;;;;;;23.01;64.51;95263.56;4931739;29;20024;-80
2023/09/29 08:33:27;;;;;;;12.75;3.20;;;;;;;23.01;64.33;95259.09;4913983;29;20030;-81
2023/09/29 08:35:55;;;;;;;12.57;3.30;;;;;;;23.13;63.25;95255.56;4915126;29;20024;-80
2023/09/29 08:38:22;;;;;;;10.45;3.72;;;;;;;23.21;61.79;95255.97;4897641;29;20024;-81
2023/09/29 08:40:48;;;;;;;16.05;3.78;;;;;;;23.34;61.17;95252.97;4915088;29;20066;-82
2023/09/29 08:43:15;;;;;;;13.63;2.90;;;;;;;23.44;58.25;95245.22;4913354;29;20032;-81
2023/09/29 08:45:42;;;;;;;16.20;3.20;;;;;;;23.36;58.32;95256.19;4914757;29;20417;-81
2023/09/29 08:48:11;;;;;;;13.20;3.33;;;;;;;23.50;56.83;95248.75;4914232;29;20027;-82
2023/09/29 08:50:39;;;;;;;14.25;2.97;;;;;;;23.84;55.47;95252.09;4898593;29;20054;-81
2023/09/29 08:53:05;;;;;;;14.23;3.47;;;;;;;23.81;54.36;95252.59;4914249;29;20035;-82
2023/09/29 08:55:31;;;;;;;9.50;2.85;;;;;;;24.23;53.54;95248.38;4913195;29;20040;-83
2023/09/29 08:57:57;;;;;;;12.68;3.72;;;;;;;24.73;50.89;95247.25;4914541;29;20119;-83
2023/09/29 09:00:24;;;;;;;11.88;3.38;;;;;;;25.17;50.77;95246.88;4913135;29;20468;-86
2023/09/29 09:02:49;;;;;;;8.93;3.08;;;;;;;25.14;48.33;95251.91;4914262;29;20042;-83
2023/09/29 09:05:15;;;;;;;19.75;3.42;;;;;;;25.41;48.48;95247.31;4913482;29;20478;-82
2023/09/29 09:07:41;;;;;;;9.48;3.30;;;;;;;25.51;47.09;95249.25;4930929;29;20064;-83
2023/09/29 09:10:09;;;;;;;13.15;3.88;;;;;;;25.75;45.99;95257.66;4930826;29;20035;-83
2023/09/29 09:12:35;;;;;;;10.50;3.10;;;;;;;25.49;43.60;95246.88;4912748;29;20048;-83
2023/09/29 09:15:03;;;;;;;10.25;3.38;;;;;;;25.54;45.96;95241.59;4929811;29;20044;-83
2023/09/29 09:17:29;;;;;;;15.88;3.90;;;;;;;25.96;43.86;95241.53;4912703;29;20091;-83
2023/09/29 09:19:54;;;;;;;9.07;3.45;;;;;;;25.68;42.97;95233.97;4898274;29;20035;-82
2023/09/29 09:22:27;;;;;;;11.63;3.30;;;;;;;26.02;43.50;95231.72;4929816;29;20038;-82
2023/09/29 09:24:59;;;;;;;8.68;3.08;;;;;;;25.84;44.39;95242.81;4898668;29;20030;-83
2023/09/29 09:27:25;;;;;;;9.68;3.05;;;;;;;25.91;44.08;95235.41;4913536;29;20031;-83
2023/09/29 09:29:51;;;;;;;10.77;3.30;;;;;;;26.25;44.12;95233.97;4913076;29;20024;-87
2023/09/29 09:32:27;;;;;;;9.48;3.50;;;;;;;26.56;42.76;95232.97;4913756;29;20031;-81
2023/09/29 09:34:52;;;;;;;13.43;4.70;;;;;;;26.48;42.57;95235.38;4912417;29;20032;-82
2023/09/29 09:37:25;;;;;;;12.52;2.80;;;;;;;26.65;42.64;95235.94;4898015;29;20039;-86
2023/09/29 09:39:54;;;;;;;6.78;3.55;;;;;;;27.11;40.65;95231.44;4929941;29;20027;-81
2023/09/29 09:42:20;;;;;;;;;;;;;;;27.03;40.68;95222.16;4913420;29;20059;-82
2023/09/29 09:44:45;;;;;;;9.80;3.92;;;;;;;26.68;41.02;95216.78;4913516;29;19922;-82
2023/09/29 09:47:14;;;;;;;5.70;3.10;;;;;;;27.16;40.86;95212.84;4912600;29;20039;-82
2023/09/29 09:49:44;;;;;;;8.45;3.17;;;;;;;27.37;40.50;95211.72;4913665;29;20503;-84
2023/09/29 09:52:15;;;;;;;8.43;3.72;;;;;;;27.21;40.31;95218.94;4913126;29;20058;-87
2023/09/29 09:54:46;;;;;;;16.23;4.00;;;;;;;26.84;38.12;95212.31;4914114;29;20150;-86
2023/09/29 09:57:18;;;;;;;13.70;3.70;;;;;;;26.84;37.75;95209.66;4912927;29;20028;-86
2023/09/29 09:59:45;;;;;;;12.27;3.78;;;;;;;26.80;37.33;95205.91;4913220;29;20035;-85
2023/09/29 10:02:11;;;;;;;8.80;3.63;;;;;;;26.70;37.53;95207.50;4913715;29;20023;-83
2023/09/29 10:04:40;;;;;;;10.25;4.00;;;;;;;26.64;38.30;95197.91;4912135;29;20407;-82
2023/09/29 10:07:05;;;;;;;;;;;;;;;26.91;38.76;95200.31;4914478;29;20038;-89
2023/09/29 10:09:46;;;;;;;7.55;3.58;;;;;;;26.88;38.73;95197.41;4911849;29;19915;-86
2023/09/29 10:12:25;;;;;;;10.63;3.63;;;;;;;26.65;39.29;95194.19;4913478;29;20039;-88
2023/09/29 10:14:52;;;;;;;7.63;3.35;;;;;;;26.49;39.27;95195.22;4912813;29;20498;-84
2023/09/29 10:17:18;;;;;;;7.90;3.67;;;;;;;26.49;39.47;95195.22;4912980;29;20031;-87
2023/09/29 10:19:45;;;;;;;5.63;3.55;;;;;;;26.40;39.69;95191.50;4913226;29;20062;-81
2023/09/29 10:22:21;;;;;;;10.75;3.72;;;;;;;26.46;39.85;95185.13;4913425;29;20047;-86
2023/09/29 10:24:46;;;;;;;8.85;3.63;;;;;;;25.98;38.45;95188.16;4901437;29;20461;-85
2023/09/29 10:27:13;;;;;;;11.90;3.60;;;;;;;25.87;38.67;95182.03;4915878;29;20031;-84
2023/09/29 10:29:40;;;;;;;13.30;3.85;;;;;;;25.81;38.48;95171.66;4901339;29;20174;-84
2023/09/29 10:32:12;;;;;;;15.38;4.05;;;;;;;26.09;39.61;95173.88;4917332;29;20067;-87
2023/09/29 10:34:38;;;;;;;8.13;3.78;;;;;;;25.93;39.14;95175.69;4916008;29;20422;-84
2023/09/29 10:37:03;;;;;;;7.20;3.58;;;;;;;25.72;38.68;95178.53;4916850;29;20042;-81
2023/09/29 10:39:30;;;;;;;8.02;3.40;;;;;;;25.63;39.49;95179.00;4915632;29;20028;-83
2023/09/29 10:42:12;;;;;;;9.73;3.78;;;;;;;25.60;39.78;95170.75;4917230;29;20506;-83
2023/09/29 10:44:57;;;;;;;5.97;3.20;;;;;;;25.77;38.84;95162.59;4916829;29;20093;-83
2023/09/29 10:47:33;;;;;;;7.22;3.17;;;;;;;25.68;39.45;95168.44;4917640;29;20054;-85
2023/09/29 10:50:06;;;;;;;7.07;3.40;;;;;;;25.53;39.11;95165.69;4917157;29;20118;-82
2023/09/29 10:52:32;;;;;;;8.05;3.42;;;;;;;25.88;40.60;95156.28;4899407;29;20040;-83
2023/09/29 10:54:59;;;;;;;10.13;3.33;;;;;;;25.94;40.58;95157.91;4916715;29;20481;-83
2023/09/29 10:57:30;;;;;;;8.57;3.15;;;;;;;25.58;40.80;95152.47;4915288;29;20023;-84
2023/09/29 11:00:02;;;;;;;7.07;3.90;;;;;;;25.53;40.55;95154.28;4916299;29;20126;-84
2023/09/29 11:02:30;;;;;;;8.38;3.53;;;;;;;25.63;40.59;95162.28;4901320;29;20035;-87
2023/09/29 11:04:57;;;;;;;;;;;;;;;25.84;40.72;95153.34;4916061;29;20122;-84
2023/09/29 11:07:23;;;;;;;8.20;3.08;;;;;;;25.59;41.44;95155.91;4900946;29;20006;-84
2023/09/29 11:09:48;;;;;;;9.90;3.30;;;;;;;25.53;41.61;95152.41;4932276;29;20032;-84
2023/09/29 11:12:17;;;;;;;8.80;4.05;;;;;;;25.33;40.19;95139.06;4916872;29;20027;-84
2023/09/29 11:14:43;;;;;;;;;;;;;;;25.21;41.72;95145.59;4915204;29;20024;-82
2023/09/29 11:17:10;;;;;;;13.95;3.25;;;;;;;25.43;41.75;95148.91;4900791;29;19946;-86
2023/09/29 11:19:35;;;;;;;11.02;2.70;;;;;;;25.20;41.95;95144.81;4899919;29;20150;-84
2023/09/29 11:22:05;;;;;;;7.30;3.10;;;;;;;25.35;42.90;95139.56;4915797;29;20448;-83
2023/09/29 11:24:40;;;;;;;8.98;3.00;;;;;;;25.22;41.34;95145.34;4900883;29;20508;-85
2023/09/29 11:27:06;;;;;;;7.35;3.22;;;;;;;25.21;41.73;95138.44;4914966;29;20020;-80
2023/09/29 11:29:31;;;;;;;9.90;3.28;;;;;;;25.36;43.72;95137.72;4915916;29;20034;-85